sensor_id;sensor_type;location;lat;lon;timestamp;pressure;altitude;pressure_sealevel;temperature;humidity
77590;BME280;66746;51.328;12.332;2023-03-05T00:00:51;100569.09;;;2.51;70.68
77590;BME280;66746;51.328;12.332;2023-03-05T00:03:17;100564.63;;;2.47;70.85
77590;BME280;66746;51.328;12.332;2023-03-05T00:05:44;100536.13;;;2.33;71.77
77590;BME280;66746;51.328;12.332;2023-03-05T00:08:16;100568.22;;;2.43;71.27
77590;BME280;66746;51.328;12.332;2023-03-05T00:10:44;100561.97;;;2.44;70.88
77590;BME280;66746;51.328;12.332;2023-03-05T00:13:16;100560.19;;;2.36;71.36
77590;BME280;66746;51.328;12.332;2023-03-05T00:15:42;100569.09;;;2.44;71.42
77590;BME280;66746;51.328;12.332;2023-03-05T00:18:11;100578.94;;;2.40;71.42
77590;BME280;66746;51.328;12.332;2023-03-05T00:20:45;100571.78;;;2.39;70.79
77590;BME280;66746;51.328;12.332;2023-03-05T00:23:12;100562.00;;;2.38;71.21
77590;BME280;66746;51.328;12.332;2023-03-05T00:25:49;100555.72;;;2.33;70.55
77590;BME280;66746;51.328;12.332;2023-03-05T00:28:16;100540.59;;;2.20;71.24
77590;BME280;66746;51.328;12.332;2023-03-05T00:31:03;100560.19;;;2.43;72.11
77590;BME280;66746;51.328;12.332;2023-03-05T00:33:30;100553.94;;;2.40;71.19
77590;BME280;66746;51.328;12.332;2023-03-05T00:35:57;100549.47;;;2.37;70.92
77590;BME280;66746;51.328;12.332;2023-03-05T00:38:24;100546.84;;;2.33;70.32
77590;BME280;66746;51.328;12.332;2023-03-05T00:40:52;100488.94;;;2.03;70.29
77590;BME280;66746;51.328;12.332;2023-03-05T00:43:18;100544.13;;;2.31;69.83
77590;BME280;66746;51.328;12.332;2023-03-05T00:45:45;100549.50;;;2.28;70.05
77590;BME280;66746;51.328;12.332;2023-03-05T00:48:13;100537.91;;;2.23;69.69
77590;BME280;66746;51.328;12.332;2023-03-05T00:50:45;100541.47;;;2.25;69.51
77590;BME280;66746;51.328;12.332;2023-03-05T00:53:20;100496.06;;;2.03;69.44
77590;BME280;66746;51.328;12.332;2023-03-05T00:55:48;100496.06;;;2.03;68.29
77590;BME280;66746;51.328;12.332;2023-03-05T00:58:16;100534.34;;;2.29;69.63
77590;BME280;66746;51.328;12.332;2023-03-05T01:00:46;100542.38;;;2.30;69.54
77590;BME280;66746;51.328;12.332;2023-03-05T01:03:13;100514.75;;;2.18;69.21
77590;BME280;66746;51.328;12.332;2023-03-05T01:05:43;100526.31;;;2.27;69.38
77590;BME280;66746;51.328;12.332;2023-03-05T01:08:12;100521.84;;;2.23;68.83
77590;BME280;66746;51.328;12.332;2023-03-05T01:10:39;100513.84;;;2.20;68.68
77590;BME280;66746;51.328;12.332;2023-03-05T01:13:08;100512.97;;;2.18;69.93
77590;BME280;66746;51.328;12.332;2023-03-05T01:15:35;100505.84;;;2.11;70.18
77590;BME280;66746;51.328;12.332;2023-03-05T01:18:02;100513.88;;;2.17;69.47
77590;BME280;66746;51.328;12.332;2023-03-05T01:20:29;100501.38;;;2.10;69.35
77590;BME280;66746;51.328;12.332;2023-03-05T01:22:55;100497.81;;;2.08;69.89
77590;BME280;66746;51.328;12.332;2023-03-05T01:25:22;100472.00;;;1.88;70.21
77590;BME280;66746;51.328;12.332;2023-03-05T01:27:48;100490.72;;;1.91;70.12
77590;BME280;66746;51.328;12.332;2023-03-05T01:30:15;100497.81;;;1.96;70.50
77590;BME280;66746;51.328;12.332;2023-03-05T01:32:45;100487.13;;;1.90;70.78
77590;BME280;66746;51.328;12.332;2023-03-05T01:35:16;100498.72;;;1.97;69.99
77590;BME280;66746;51.328;12.332;2023-03-05T01:37:45;100507.66;;;1.97;70.83
77590;BME280;66746;51.328;12.332;2023-03-05T01:40:16;100493.38;;;1.95;71.25
77590;BME280;66746;51.328;12.332;2023-03-05T01:42:45;100496.03;;;1.92;71.07
77590;BME280;66746;51.328;12.332;2023-03-05T01:45:16;100480.00;;;1.86;71.46
77590;BME280;66746;51.328;12.332;2023-03-05T01:47:44;100480.94;;;1.77;71.65
77590;BME280;66746;51.328;12.332;2023-03-05T01:50:16;100498.75;;;1.89;71.49
77590;BME280;66746;51.328;12.332;2023-03-05T01:52:48;100484.50;;;1.86;71.39
77590;BME280;66746;51.328;12.332;2023-03-05T01:55:21;100489.81;;;1.89;71.26
77590;BME280;66746;51.328;12.332;2023-03-05T01:57:51;100484.50;;;1.86;72.47
77590;BME280;66746;51.328;12.332;2023-03-05T02:00:23;100482.72;;;1.88;71.71
77590;BME280;66746;51.328;12.332;2023-03-05T02:02:54;100464.00;;;1.74;73.01
77590;BME280;66746;51.328;12.332;2023-03-05T02:05:25;100474.69;;;1.77;72.57
77590;BME280;66746;51.328;12.332;2023-03-05T02:07:53;100488.94;;;1.80;72.97
77590;BME280;66746;51.328;12.332;2023-03-05T02:10:22;100472.00;;;1.82;73.95
77590;BME280;66746;51.328;12.332;2023-03-05T02:12:50;100464.00;;;1.82;74.28
77590;BME280;66746;51.328;12.332;2023-03-05T02:15:18;100459.53;;;1.74;72.75
77590;BME280;66746;51.328;12.332;2023-03-05T02:17:44;100460.44;;;1.75;73.63
77590;BME280;66746;51.328;12.332;2023-03-05T02:20:16;100455.97;;;1.75;74.05
77590;BME280;66746;51.328;12.332;2023-03-05T02:22:46;100467.56;;;1.73;74.06
77590;BME280;66746;51.328;12.332;2023-03-05T02:25:15;100453.28;;;1.71;74.00
77590;BME280;66746;51.328;12.332;2023-03-05T02:27:45;100449.72;;;1.69;74.00
77590;BME280;66746;51.328;12.332;2023-03-05T02:30:16;100453.31;;;1.68;73.65
77590;BME280;66746;51.328;12.332;2023-03-05T02:32:44;100444.41;;;1.66;74.65
77590;BME280;66746;51.328;12.332;2023-03-05T02:35:13;100420.34;;;1.51;75.15
77590;BME280;66746;51.328;12.332;2023-03-05T02:37:40;100434.59;;;1.59;75.04
77590;BME280;66746;51.328;12.332;2023-03-05T02:40:20;100433.72;;;1.57;75.09
77590;BME280;66746;51.328;12.332;2023-03-05T02:42:46;100439.94;;;1.63;76.38
77590;BME280;66746;51.328;12.332;2023-03-05T02:45:14;100437.25;;;1.59;76.38
77590;BME280;66746;51.328;12.332;2023-03-05T02:47:41;100432.84;;;1.52;77.65
77590;BME280;66746;51.328;12.332;2023-03-05T02:50:09;100434.63;;;1.56;78.32
77590;BME280;66746;51.328;12.332;2023-03-05T02:52:42;100428.38;;;1.48;78.33
77590;BME280;66746;51.328;12.332;2023-03-05T02:55:14;100435.50;;;1.52;78.79
77590;BME280;66746;51.328;12.332;2023-03-05T02:57:44;100421.28;;;1.41;78.54
77590;BME280;66746;51.328;12.332;2023-03-05T03:00:11;100431.97;;;1.47;79.28
77590;BME280;66746;51.328;12.332;2023-03-05T03:02:45;100432.81;;;1.46;78.64
77590;BME280;66746;51.328;12.332;2023-03-05T03:05:11;100421.25;;;1.44;79.31
77590;BME280;66746;51.328;12.332;2023-03-05T03:07:42;100423.06;;;1.45;79.38
77590;BME280;66746;51.328;12.332;2023-03-05T03:10:10;100422.16;;;1.37;79.01
77590;BME280;66746;51.328;12.332;2023-03-05T03:12:38;100433.72;;;1.42;79.35
77590;BME280;66746;51.328;12.332;2023-03-05T03:15:06;100426.59;;;1.41;79.32
77590;BME280;66746;51.328;12.332;2023-03-05T03:17:34;100424.81;;;1.40;78.66
77590;BME280;66746;51.328;12.332;2023-03-05T03:20:02;100422.16;;;1.38;79.21
77590;BME280;66746;51.328;12.332;2023-03-05T03:22:28;100421.25;;;1.44;78.79
77590;BME280;66746;51.328;12.332;2023-03-05T03:24:55;100398.09;;;1.34;78.15
77590;BME280;66746;51.328;12.332;2023-03-05T03:27:21;100420.34;;;1.48;78.31
77590;BME280;66746;51.328;12.332;2023-03-05T03:29:49;100387.41;;;1.28;78.09
77590;BME280;66746;51.328;12.332;2023-03-05T03:32:16;100408.78;;;1.52;78.04
77590;BME280;66746;51.328;12.332;2023-03-05T03:34:42;100412.34;;;1.49;78.09
77590;BME280;66746;51.328;12.332;2023-03-05T03:37:11;100401.63;;;1.51;77.31
77590;BME280;66746;51.328;12.332;2023-03-05T03:39:46;100403.44;;;1.49;77.77
77590;BME280;66746;51.328;12.332;2023-03-05T03:42:15;100403.44;;;1.52;78.23
77590;BME280;66746;51.328;12.332;2023-03-05T03:44:42;100398.06;;;1.49;77.80
77590;BME280;66746;51.328;12.332;2023-03-05T03:47:10;100409.66;;;1.43;77.72
77590;BME280;66746;51.328;12.332;2023-03-05T03:49:36;100396.31;;;1.34;77.27
77590;BME280;66746;51.328;12.332;2023-03-05T03:52:03;100397.22;;;1.29;78.22
77590;BME280;66746;51.328;12.332;2023-03-05T03:54:30;100390.97;;;1.21;78.19
77590;BME280;66746;51.328;12.332;2023-03-05T03:56:57;100384.75;;;1.20;77.04
77590;BME280;66746;51.328;12.332;2023-03-05T03:59:23;100379.41;;;1.17;77.59
77590;BME280;66746;51.328;12.332;2023-03-05T04:01:50;100377.63;;;1.13;77.89
77590;BME280;66746;51.328;12.332;2023-03-05T04:04:18;100385.63;;;1.16;77.06
77590;BME280;66746;51.328;12.332;2023-03-05T04:06:44;100376.72;;;1.16;77.42
77590;BME280;66746;51.328;12.332;2023-03-05T04:09:13;100364.28;;;1.09;77.77
77590;BME280;66746;51.328;12.332;2023-03-05T04:11:41;100380.28;;;1.22;76.65
77590;BME280;66746;51.328;12.332;2023-03-05T04:14:13;100368.72;;;1.25;76.89
77590;BME280;66746;51.328;12.332;2023-03-05T04:16:41;100337.56;;;1.15;76.82
77590;BME280;66746;51.328;12.332;2023-03-05T04:19:12;100357.16;;;1.23;76.50
77590;BME280;66746;51.328;12.332;2023-03-05T04:21:46;100367.84;;;1.29;76.03
77590;BME280;66746;51.328;12.332;2023-03-05T04:24:12;100332.22;;;1.12;76.00
77590;BME280;66746;51.328;12.332;2023-03-05T04:26:42;100355.38;;;1.31;75.49
77590;BME280;66746;51.328;12.332;2023-03-05T04:29:08;100356.25;;;1.34;75.39
77590;BME280;66746;51.328;12.332;2023-03-05T04:31:37;100350.03;;;1.34;75.31
77590;BME280;66746;51.328;12.332;2023-03-05T04:34:03;100342.91;;;1.36;75.45
77590;BME280;66746;51.328;12.332;2023-03-05T04:36:30;100325.09;;;1.24;74.70
77590;BME280;66746;51.328;12.332;2023-03-05T04:38:57;100323.31;;;1.22;76.11
77590;BME280;66746;51.328;12.332;2023-03-05T04:41:24;100334.00;;;1.34;75.91
77590;BME280;66746;51.328;12.332;2023-03-05T04:43:50;100336.66;;;1.34;76.98
77590;BME280;66746;51.328;12.332;2023-03-05T04:46:17;100321.53;;;1.30;76.32
77590;BME280;66746;51.328;12.332;2023-03-05T04:48:43;100323.31;;;1.34;76.08
77590;BME280;66746;51.328;12.332;2023-03-05T04:51:12;100331.31;;;1.35;75.85
77590;BME280;66746;51.328;12.332;2023-03-05T04:53:38;100319.75;;;1.35;77.41
77590;BME280;66746;51.328;12.332;2023-03-05T04:56:15;100307.31;;;1.25;75.88
77590;BME280;66746;51.328;12.332;2023-03-05T04:58:42;100317.97;;;1.43;76.75
77590;BME280;66746;51.328;12.332;2023-03-05T05:01:08;100316.19;;;1.45;76.19
77590;BME280;66746;51.328;12.332;2023-03-05T05:03:42;100296.63;;;1.37;77.21
77590;BME280;66746;51.328;12.332;2023-03-05T05:06:15;100275.25;;;1.26;76.26
77590;BME280;66746;51.328;12.332;2023-03-05T05:08:42;100309.03;;;1.53;76.92
77590;BME280;66746;51.328;12.332;2023-03-05T05:11:16;100287.69;;;1.38;76.01
77590;BME280;66746;51.328;12.332;2023-03-05T05:13:42;100318.81;;;1.57;76.78
77590;BME280;66746;51.328;12.332;2023-03-05T05:16:11;100310.78;;;1.57;77.09
77590;BME280;66746;51.328;12.332;2023-03-05T05:18:42;100310.78;;;1.63;77.29
77590;BME280;66746;51.328;12.332;2023-03-05T05:21:09;100300.09;;;1.66;76.96
77590;BME280;66746;51.328;12.332;2023-03-05T05:23:36;100298.31;;;1.68;77.86
77590;BME280;66746;51.328;12.332;2023-03-05T05:26:05;100299.19;;;1.67;77.89
77590;BME280;66746;51.328;12.332;2023-03-05T05:28:34;100288.50;;;1.65;76.95
77590;BME280;66746;51.328;12.332;2023-03-05T05:31:06;100299.22;;;1.64;76.60
77590;BME280;66746;51.328;12.332;2023-03-05T05:33:46;100272.53;;;1.52;77.40
77590;BME280;66746;51.328;12.332;2023-03-05T05:36:16;100297.41;;;1.73;76.81
77590;BME280;66746;51.328;12.332;2023-03-05T05:38:45;100260.94;;;1.56;77.14
77590;BME280;66746;51.328;12.332;2023-03-05T05:41:13;100297.41;;;1.73;77.88
77590;BME280;66746;51.328;12.332;2023-03-05T05:43:41;100293.84;;;1.71;76.99
77590;BME280;66746;51.328;12.332;2023-03-05T05:46:14;100292.94;;;1.72;77.49
77590;BME280;66746;51.328;12.332;2023-03-05T05:48:44;100299.16;;;1.74;77.66
77590;BME280;66746;51.328;12.332;2023-03-05T05:51:13;100294.75;;;1.67;77.17
77590;BME280;66746;51.328;12.332;2023-03-05T05:53:42;100300.09;;;1.72;77.14
77590;BME280;66746;51.328;12.332;2023-03-05T05:56:10;100297.41;;;1.73;77.41
77590;BME280;66746;51.328;12.332;2023-03-05T05:58:40;100302.72;;;1.75;77.25
77590;BME280;66746;51.328;12.332;2023-03-05T06:01:13;100285.81;;;1.68;76.41
77590;BME280;66746;51.328;12.332;2023-03-05T06:03:40;100299.16;;;1.74;76.87
77590;BME280;66746;51.328;12.332;2023-03-05T06:06:14;100300.97;;;1.74;76.96
77590;BME280;66746;51.328;12.332;2023-03-05T06:08:42;100303.63;;;1.74;78.42
77590;BME280;66746;51.328;12.332;2023-03-05T06:11:12;100299.19;;;1.71;79.33
77590;BME280;66746;51.328;12.332;2023-03-05T06:13:43;100295.63;;;1.71;80.21
77590;BME280;66746;51.328;12.332;2023-03-05T06:16:14;100276.94;;;1.62;80.44
77590;BME280;66746;51.328;12.332;2023-03-05T06:18:49;100300.06;;;1.73;80.33
77590;BME280;66746;51.328;12.332;2023-03-05T06:21:16;100290.28;;;1.68;80.62
77590;BME280;66746;51.328;12.332;2023-03-05T06:23:45;100301.84;;;1.73;80.64
77590;BME280;66746;51.328;12.332;2023-03-05T06:26:17;100292.94;;;1.71;80.95
77590;BME280;66746;51.328;12.332;2023-03-05T06:28:47;100300.09;;;1.72;81.50
77590;BME280;66746;51.328;12.332;2023-03-05T06:31:17;100304.53;;;1.70;81.56
77590;BME280;66746;51.328;12.332;2023-03-05T06:33:44;100292.97;;;1.68;82.49
77590;BME280;66746;51.328;12.332;2023-03-05T06:36:12;100304.53;;;1.71;83.54
77590;BME280;66746;51.328;12.332;2023-03-05T06:38:39;100293.88;;;1.64;84.67
77590;BME280;66746;51.328;12.332;2023-03-05T06:41:10;100305.44;;;1.72;84.09
77590;BME280;66746;51.328;12.332;2023-03-05T06:43:46;100291.16;;;1.67;84.68
77590;BME280;66746;51.328;12.332;2023-03-05T06:46:16;100289.41;;;1.66;84.10
77590;BME280;66746;51.328;12.332;2023-03-05T06:48:43;100301.84;;;1.73;83.53
77590;BME280;66746;51.328;12.332;2023-03-05T06:51:13;100275.16;;;1.61;83.83
77590;BME280;66746;51.328;12.332;2023-03-05T06:53:43;100274.25;;;1.65;84.08
77590;BME280;66746;51.328;12.332;2023-03-05T06:56:19;100285.78;;;1.79;83.87
77590;BME280;66746;51.328;12.332;2023-03-05T06:58:49;100279.56;;;1.80;84.31
77590;BME280;66746;51.328;12.332;2023-03-05T07:01:18;100281.31;;;1.83;83.63
77590;BME280;66746;51.328;12.332;2023-03-05T07:03:50;100280.44;;;1.79;83.16
77590;BME280;66746;51.328;12.332;2023-03-05T07:06:17;100262.69;;;1.64;83.53
77590;BME280;66746;51.328;12.332;2023-03-05T07:08:45;100271.56;;;1.71;83.07
77590;BME280;66746;51.328;12.332;2023-03-05T07:11:15;100288.44;;;1.87;83.64
77590;BME280;66746;51.328;12.332;2023-03-05T07:13:42;100291.06;;;1.94;83.53
77590;BME280;66746;51.328;12.332;2023-03-05T07:16:15;100283.06;;;1.93;82.13
77590;BME280;66746;51.328;12.332;2023-03-05T07:18:44;100292.78;;;2.13;82.97
77590;BME280;66746;51.328;12.332;2023-03-05T07:21:14;100262.53;;;1.96;82.89
77590;BME280;66746;51.328;12.332;2023-03-05T07:23:41;100284.81;;;2.01;81.79
77590;BME280;66746;51.328;12.332;2023-03-05T07:26:07;100286.63;;;1.95;82.14
77590;BME280;66746;51.328;12.332;2023-03-05T07:28:34;100289.28;;;1.96;82.96
77590;BME280;66746;51.328;12.332;2023-03-05T07:31:02;100286.63;;;1.90;82.33
77590;BME280;66746;51.328;12.332;2023-03-05T07:33:29;100286.66;;;1.92;82.69
77590;BME280;66746;51.328;12.332;2023-03-05T07:35:59;100276.81;;;1.92;83.20
77590;BME280;66746;51.328;12.332;2023-03-05T07:38:27;100282.09;;;2.04;81.78
77590;BME280;66746;51.328;12.332;2023-03-05T07:40:53;100283.88;;;2.08;82.68
77590;BME280;66746;51.328;12.332;2023-03-05T07:43:20;100282.94;;;2.17;82.81
77590;BME280;66746;51.328;12.332;2023-03-05T07:45:48;100284.72;;;2.16;82.81
77590;BME280;66746;51.328;12.332;2023-03-05T07:48:16;100282.09;;;2.13;82.72
77590;BME280;66746;51.328;12.332;2023-03-05T07:50:49;100284.72;;;2.19;82.98
77590;BME280;66746;51.328;12.332;2023-03-05T07:53:17;100282.00;;;2.25;83.07
77590;BME280;66746;51.328;12.332;2023-03-05T07:55:46;100260.66;;;2.16;82.37
77590;BME280;66746;51.328;12.332;2023-03-05T07:58:19;100263.31;;;2.21;82.92
77590;BME280;66746;51.328;12.332;2023-03-05T08:00:46;100260.56;;;2.34;82.48
77590;BME280;66746;51.328;12.332;2023-03-05T08:03:13;100280.06;;;2.51;82.82
77590;BME280;66746;51.328;12.332;2023-03-05T08:05:44;100262.25;;;2.47;82.13
77590;BME280;66746;51.328;12.332;2023-03-05T08:08:12;100271.06;;;2.61;81.76
77590;BME280;66746;51.328;12.332;2023-03-05T08:10:45;100266.50;;;2.72;81.50
77590;BME280;66746;51.328;12.332;2023-03-05T08:13:14;100248.69;;;2.72;81.00
77590;BME280;66746;51.328;12.332;2023-03-05T08:15:41;100269.88;;;2.96;79.87
77590;BME280;66746;51.328;12.332;2023-03-05T08:18:07;100267.03;;;3.15;81.39
77590;BME280;66746;51.328;12.332;2023-03-05T08:20:34;100265.19;;;3.22;79.36
77590;BME280;66746;51.328;12.332;2023-03-05T08:23:02;100255.22;;;3.37;78.86
77590;BME280;66746;51.328;12.332;2023-03-05T08:25:29;100230.56;;;3.02;79.20
77590;BME280;66746;51.328;12.332;2023-03-05T08:27:57;100256.38;;;3.11;78.66
77590;BME280;66746;51.328;12.332;2023-03-05T08:30:23;100252.72;;;3.18;78.98
77590;BME280;66746;51.328;12.332;2023-03-05T08:32:50;100249.09;;;3.25;78.84
77590;BME280;66746;51.328;12.332;2023-03-05T08:35:17;100234.69;;;3.35;77.77
77590;BME280;66746;51.328;12.332;2023-03-05T08:37:43;100235.38;;;3.53;77.61
77590;BME280;66746;51.328;12.332;2023-03-05T08:40:18;100256.38;;;3.91;77.16
77590;BME280;66746;51.328;12.332;2023-03-05T08:42:45;100253.63;;;3.97;76.81
77590;BME280;66746;51.328;12.332;2023-03-05T08:45:12;100240.22;;;3.94;77.05
77590;BME280;66746;51.328;12.332;2023-03-05T08:47:41;100250.81;;;4.06;76.39
77590;BME280;66746;51.328;12.332;2023-03-05T08:50:09;100258.78;;;4.12;75.69
77590;BME280;66746;51.328;12.332;2023-03-05T08:52:39;100246.34;;;4.05;76.15
77590;BME280;66746;51.328;12.332;2023-03-05T08:55:09;100234.06;;;3.86;76.40
77590;BME280;66746;51.328;12.332;2023-03-05T08:57:45;100243.00;;;3.88;75.89
77590;BME280;66746;51.328;12.332;2023-03-05T09:00:14;100239.47;;;3.85;75.31
77590;BME280;66746;51.328;12.332;2023-03-05T09:02:40;100237.75;;;3.79;75.53
77590;BME280;66746;51.328;12.332;2023-03-05T09:05:11;100234.19;;;3.77;75.59
77590;BME280;66746;51.328;12.332;2023-03-05T09:07:39;100236.16;;;3.66;75.47
77590;BME280;66746;51.328;12.332;2023-03-05T09:10:07;100208.56;;;3.53;75.84
77590;BME280;66746;51.328;12.332;2023-03-05T09:12:33;100231.53;;;3.74;75.67
77590;BME280;66746;51.328;12.332;2023-03-05T09:15:00;100229.59;;;3.88;75.98
77590;BME280;66746;51.328;12.332;2023-03-05T09:17:27;100208.19;;;3.82;74.69
77590;BME280;66746;51.328;12.332;2023-03-05T09:19:54;100218.72;;;3.99;74.69
77590;BME280;66746;51.328;12.332;2023-03-05T09:22:20;100209.00;;;3.90;74.68
77590;BME280;66746;51.328;12.332;2023-03-05T09:24:47;100196.50;;;3.89;74.67
77590;BME280;66746;51.328;12.332;2023-03-05T09:27:15;100205.59;;;3.76;74.29
77590;BME280;66746;51.328;12.332;2023-03-05T09:29:41;100203.91;;;3.69;74.85
77590;BME280;66746;51.328;12.332;2023-03-05T09:32:11;100196.81;;;3.65;75.63
77590;BME280;66746;51.328;12.332;2023-03-05T09:34:47;100202.31;;;3.56;76.20
77590;BME280;66746;51.328;12.332;2023-03-05T09:37:15;100205.94;;;3.49;76.72
77590;BME280;66746;51.328;12.332;2023-03-05T09:39:42;100197.09;;;3.42;77.43
77590;BME280;66746;51.328;12.332;2023-03-05T09:42:27;100206.88;;;3.45;78.74
77590;BME280;66746;51.328;12.332;2023-03-05T09:45:02;100187.16;;;3.52;79.15
77590;BME280;66746;51.328;12.332;2023-03-05T09:47:44;100191.44;;;3.65;79.41
77590;BME280;66746;51.328;12.332;2023-03-05T09:50:32;100194.94;;;3.73;79.16
77590;BME280;66746;51.328;12.332;2023-03-05T09:53:04;100191.34;;;3.73;78.74
77590;BME280;66746;51.328;12.332;2023-03-05T09:55:35;100193.25;;;3.63;78.56
77590;BME280;66746;51.328;12.332;2023-03-05T09:58:05;100193.44;;;3.49;78.27
77590;BME280;66746;51.328;12.332;2023-03-05T10:00:35;100170.41;;;3.32;80.49
77590;BME280;66746;51.328;12.332;2023-03-05T10:03:05;100178.47;;;3.30;80.37
77590;BME280;66746;51.328;12.332;2023-03-05T10:05:50;100162.72;;;3.00;81.27
77590;BME280;66746;51.328;12.332;2023-03-05T10:08:22;100188.63;;;3.00;81.94
77590;BME280;66746;51.328;12.332;2023-03-05T10:10:51;100190.41;;;3.01;83.38
77590;BME280;66746;51.328;12.332;2023-03-05T10:13:21;100188.56;;;3.07;82.49
77590;BME280;66746;51.328;12.332;2023-03-05T10:15:57;100182.34;;;3.02;82.09
77590;BME280;66746;51.328;12.332;2023-03-05T10:18:31;100173.34;;;3.11;83.15
77590;BME280;66746;51.328;12.332;2023-03-05T10:21:02;100162.31;;;3.38;81.78
77590;BME280;66746;51.328;12.332;2023-03-05T10:23:55;100164.91;;;3.44;82.11
77590;BME280;66746;51.328;12.332;2023-03-05T10:26:39;100163.09;;;3.46;83.14
77590;BME280;66746;51.328;12.332;2023-03-05T10:29:27;100141.75;;;3.37;81.50
77590;BME280;66746;51.328;12.332;2023-03-05T10:32:10;100151.41;;;3.51;82.22
77590;BME280;66746;51.328;12.332;2023-03-05T10:34:53;100147.09;;;3.40;82.91
77590;BME280;66746;51.328;12.332;2023-03-05T10:37:40;100154.34;;;3.32;83.15
77590;BME280;66746;51.328;12.332;2023-03-05T10:40:19;100127.78;;;3.12;83.90
77590;BME280;66746;51.328;12.332;2023-03-05T10:42:53;100119.09;;;2.94;82.00
77590;BME280;66746;51.328;12.332;2023-03-05T10:45:27;100128.06;;;2.87;82.80
77590;BME280;66746;51.328;12.332;2023-03-05T10:47:56;100145.75;;;3.03;83.21
77590;BME280;66746;51.328;12.332;2023-03-05T10:50:26;100145.69;;;3.09;83.13
77590;BME280;66746;51.328;12.332;2023-03-05T10:53:05;100133.03;;;3.20;83.50
77590;BME280;66746;51.328;12.332;2023-03-05T10:55:32;100129.31;;;3.33;83.09
77590;BME280;66746;51.328;12.332;2023-03-05T10:58:00;100128.91;;;3.66;83.18
77590;BME280;66746;51.328;12.332;2023-03-05T11:00:27;100132.31;;;3.77;81.50
77590;BME280;66746;51.328;12.332;2023-03-05T11:02:59;100103.59;;;3.85;81.95
77590;BME280;66746;51.328;12.332;2023-03-05T11:05:44;100114.06;;;4.00;80.08
77590;BME280;66746;51.328;12.332;2023-03-05T11:08:24;100116.50;;;4.15;80.05
77590;BME280;66746;51.328;12.332;2023-03-05T11:11:09;100102.97;;;4.24;80.13
77590;BME280;66746;51.328;12.332;2023-03-05T11:13:54;100094.63;;;4.41;80.16
77590;BME280;66746;51.328;12.332;2023-03-05T11:16:23;100095.44;;;4.44;77.85
77590;BME280;66746;51.328;12.332;2023-03-05T11:19:11;100099.63;;;4.61;79.30
77590;BME280;66746;51.328;12.332;2023-03-05T11:21:41;100082.88;;;4.46;77.45
77590;BME280;66746;51.328;12.332;2023-03-05T11:24:16;100083.25;;;4.25;77.09
77590;BME280;66746;51.328;12.332;2023-03-05T11:26:49;100090.88;;;3.99;77.49
77590;BME280;66746;51.328;12.332;2023-03-05T11:29:19;100079.34;;;3.91;78.78
77590;BME280;66746;51.328;12.332;2023-03-05T11:31:46;100074.94;;;3.87;79.62
77590;BME280;66746;51.328;12.332;2023-03-05T11:34:28;100071.41;;;3.85;79.40
77590;BME280;66746;51.328;12.332;2023-03-05T11:37:02;100081.97;;;3.94;78.84
77590;BME280;66746;51.328;12.332;2023-03-05T11:39:31;100051.72;;;3.86;77.75
77590;BME280;66746;51.328;12.332;2023-03-05T11:42:00;100062.84;;;4.17;77.52
77590;BME280;66746;51.328;12.332;2023-03-05T11:44:29;100063.31;;;4.41;77.53
77590;BME280;66746;51.328;12.332;2023-03-05T11:47:01;100044.97;;;4.65;76.77
77590;BME280;66746;51.328;12.332;2023-03-05T11:49:30;100039.47;;;4.71;76.60
77590;BME280;66746;51.328;12.332;2023-03-05T11:52:04;100042.91;;;4.79;75.41
77590;BME280;66746;51.328;12.332;2023-03-05T11:54:39;100050.31;;;4.68;74.26
77590;BME280;66746;51.328;12.332;2023-03-05T11:57:17;100027.25;;;4.55;75.53
77590;BME280;66746;51.328;12.332;2023-03-05T11:59:44;100037.88;;;4.61;76.29
77590;BME280;66746;51.328;12.332;2023-03-05T12:02:16;100030.44;;;4.75;76.79
77590;BME280;66746;51.328;12.332;2023-03-05T12:04:45;100032.19;;;4.77;74.20
77590;BME280;66746;51.328;12.332;2023-03-05T12:07:15;100002.75;;;4.73;74.79
77590;BME280;66746;51.328;12.332;2023-03-05T12:09:49;100020.22;;;4.95;74.38
77590;BME280;66746;51.328;12.332;2023-03-05T12:12:30;100019.16;;;5.02;73.99
77590;BME280;66746;51.328;12.332;2023-03-05T12:15:05;100009.97;;;5.12;73.74
77590;BME280;66746;51.328;12.332;2023-03-05T12:17:43;100014.03;;;4.90;72.46
77590;BME280;66746;51.328;12.332;2023-03-05T12:20:18;100008.13;;;4.73;72.96
77590;BME280;66746;51.328;12.332;2023-03-05T12:22:48;100008.34;;;4.61;73.82
77590;BME280;66746;51.328;12.332;2023-03-05T12:25:24;99999.66;;;4.46;73.97
77590;BME280;66746;51.328;12.332;2023-03-05T12:27:51;99993.81;;;4.25;74.54
77590;BME280;66746;51.328;12.332;2023-03-05T12:30:53;99993.94;;;4.17;74.58
77590;BME280;66746;51.328;12.332;2023-03-05T12:33:35;99992.31;;;4.10;74.54
77590;BME280;66746;51.328;12.332;2023-03-05T12:42:46;100014.66;;;3.56;78.14
77590;BME280;66746;51.328;12.332;2023-03-05T12:48:33;100014.38;;;3.12;81.10
77590;BME280;66746;51.328;12.332;2023-03-05T12:50:59;100018.19;;;2.94;82.34
77590;BME280;66746;51.328;12.332;2023-03-05T12:53:26;100015.69;;;2.81;83.67
77590;BME280;66746;51.328;12.332;2023-03-05T12:55:57;100007.09;;;2.54;84.38
77590;BME280;66746;51.328;12.332;2023-03-05T12:58:33;100000.06;;;2.41;85.03
77590;BME280;66746;51.328;12.332;2023-03-05T13:01:11;99986.53;;;2.55;83.43
77590;BME280;66746;51.328;12.332;2023-03-05T13:03:49;99989.81;;;2.78;82.72
77590;BME280;66746;51.328;12.332;2023-03-05T13:06:24;99974.47;;;2.94;81.03
77590;BME280;66746;51.328;12.332;2023-03-05T13:08:55;99970.63;;;3.13;81.50
77590;BME280;66746;51.328;12.332;2023-03-05T13:11:26;99979.91;;;3.50;81.14
77590;BME280;66746;51.328;12.332;2023-03-05T13:13:55;99966.19;;;3.68;79.95
77590;BME280;66746;51.328;12.332;2023-03-05T13:16:24;99972.97;;;3.90;80.40